Search for airport 
image banner adimage banner adimage banner ad
image banner ad

PS05 - G&N

Located in Albion, United States

ICAO - PS05, IATA -

Data provided by Airmate  

General information

Coordinates: N41°52'31" W80°22'29"
Elevation is 985 feet MSL.
Magnetic variation is -08° East
View others Airports in Pennsylvania

Operational data

Special qualification required
Current time UTC:
Current local time:
Weather at : KERI - Erie Intl/Tom Ridge Field ( 28 km )
METAR: KERI 132051Z 28008KT 10SM SCT040 BKN050 25/17 A2983 RMK AO2 SLP098 T02500172 58010
TAF: KERI 131734Z 1318/1418 34007KT P6SM FEW250 FM140200 VRB03KT P6SM SCT250 FM141500 30005KT P6SM VCSH BKN035
View NOTAMs / SUP AIP / TFR affecting this airport [VIEW]
Communications frequencies: [VIEW]

Runways:

RWY identifierQFULength (ft)Width (ft)SurfaceLDA (ft)
092700100GRASS
272700100GRASS

Airport contact information

Address: Albion United States

Satellite view of PS05